createdAt,value
2019-02-03T00:01:26.962Z,5.20
2019-02-03T00:03:54.910Z,5.10
2019-02-03T00:06:24.153Z,5.10
2019-02-03T00:08:52.078Z,5.10
2019-02-03T00:11:19.766Z,5.10
2019-02-03T00:13:47.641Z,5.00
2019-02-03T00:16:15.389Z,5.00
2019-02-03T00:18:45.048Z,4.90
2019-02-03T00:21:12.881Z,4.80
2019-02-03T00:23:40.550Z,4.80
2019-02-03T00:26:08.326Z,4.80
2019-02-03T00:28:36.131Z,4.70
2019-02-03T00:31:04.558Z,4.70
2019-02-03T00:33:32.453Z,4.70
2019-02-03T00:36:00.809Z,4.60
2019-02-03T00:38:28.622Z,4.50
2019-02-03T00:40:56.608Z,4.50
2019-02-03T00:43:24.449Z,4.50
2019-02-03T00:45:52.319Z,4.40
2019-02-03T00:48:20.101Z,4.40
2019-02-03T00:50:47.993Z,4.40
2019-02-03T00:53:15.659Z,4.40
2019-02-03T00:55:43.426Z,4.30
2019-02-03T00:58:11.102Z,4.30
2019-02-03T01:00:39.162Z,4.30
2019-02-03T01:03:06.943Z,4.40
2019-02-03T01:05:35.344Z,4.50
2019-02-03T01:08:04.956Z,4.50
2019-02-03T01:10:33.005Z,4.50
2019-02-03T01:13:00.784Z,4.60
2019-02-03T01:15:28.743Z,4.70
2019-02-03T01:17:56.597Z,4.70
2019-02-03T01:20:24.299Z,4.80
2019-02-03T01:22:52.341Z,4.90
2019-02-03T01:25:20.643Z,5.00
2019-02-03T01:27:48.498Z,5.00
2019-02-03T01:30:17.681Z,4.90
2019-02-03T01:32:47.025Z,4.80
2019-02-03T01:35:15.221Z,4.80
2019-02-03T01:37:43.074Z,4.70
2019-02-03T01:40:13.449Z,4.70
2019-02-03T01:42:42.798Z,4.60
2019-02-03T01:45:13.076Z,4.60
2019-02-03T01:47:42.437Z,4.60
2019-02-03T01:50:11.955Z,4.50
2019-02-03T01:52:40.929Z,4.40
2019-02-03T01:55:11.271Z,4.40
2019-02-03T01:57:40.550Z,4.40
2019-02-03T02:00:12.962Z,4.30
2019-02-03T02:02:42.379Z,4.30
2019-02-03T02:05:10.718Z,4.20
2019-02-03T02:07:50.871Z,4.20
2019-02-03T02:10:11.061Z,4.10
2019-02-03T02:12:40.348Z,4.10
2019-02-03T02:15:10.670Z,4.10
2019-02-03T02:17:39.935Z,4.10
2019-02-03T02:20:11.654Z,4.10
2019-02-03T02:22:40.930Z,4.10
2019-02-03T02:25:08.770Z,4.10
2019-02-03T02:27:36.654Z,4.10
2019-02-03T02:30:06.863Z,4.10
2019-02-03T02:32:36.742Z,4.10
2019-02-03T02:35:06.345Z,4.10
2019-02-03T02:37:35.637Z,4.10
2019-02-03T02:40:12.761Z,4.10
2019-02-03T02:42:36.168Z,4.00
2019-02-03T02:45:04.705Z,4.00
2019-02-03T02:47:34.364Z,4.00
2019-02-03T02:50:02.340Z,4.00
2019-02-03T02:52:31.605Z,4.00
2019-02-03T02:54:59.358Z,4.00
2019-02-03T02:57:27.021Z,4.00
2019-02-03T02:59:54.758Z,4.00
2019-02-03T03:02:22.935Z,4.00
2019-02-03T03:04:50.841Z,4.00
2019-02-03T03:07:18.773Z,4.00
2019-02-03T03:09:46.570Z,4.00
2019-02-03T03:12:14.315Z,3.90
2019-02-03T03:14:41.965Z,3.90
2019-02-03T03:17:10.229Z,3.80
2019-02-03T03:19:38.126Z,3.70
2019-02-03T03:22:06.058Z,3.70
2019-02-03T03:24:34.026Z,3.60
2019-02-03T03:27:01.897Z,3.70
2019-02-03T03:29:29.645Z,3.70
2019-02-03T03:31:57.994Z,3.60
2019-02-03T03:34:25.805Z,3.60
2019-02-03T03:36:53.773Z,3.50
2019-02-03T03:39:21.647Z,3.50
2019-02-03T03:41:49.598Z,3.50
2019-02-03T03:44:17.473Z,3.50
2019-02-03T03:46:45.445Z,3.50
2019-02-03T03:49:13.325Z,3.60
2019-02-03T03:51:42.666Z,3.70
2019-02-03T03:54:10.325Z,3.60
2019-02-03T03:56:38.021Z,3.60
2019-02-03T03:59:05.778Z,3.60
2019-02-03T04:01:33.482Z,3.60
2019-02-03T04:04:01.414Z,3.50
2019-02-03T04:06:29.487Z,3.50
2019-02-03T04:08:57.452Z,3.50
2019-02-03T04:11:25.101Z,3.40
2019-02-03T04:13:53.024Z,3.40
2019-02-03T04:16:21.889Z,3.50
2019-02-03T04:18:49.823Z,3.50
2019-02-03T04:21:17.494Z,3.50
2019-02-03T04:23:45.252Z,3.50
2019-02-03T04:26:12.922Z,3.50
2019-02-03T04:28:40.652Z,3.50
2019-02-03T04:31:08.329Z,3.50
2019-02-03T04:33:36.065Z,3.50
2019-02-03T04:36:04.029Z,3.50
2019-02-03T04:38:31.860Z,3.40
2019-02-03T04:40:59.546Z,3.30
2019-02-03T04:43:27.482Z,3.30
2019-02-03T04:45:55.263Z,3.40
2019-02-03T04:48:23.207Z,3.40
2019-02-03T04:50:50.896Z,3.40
2019-02-03T04:53:18.634Z,3.40
2019-02-03T04:55:46.378Z,3.30
2019-02-03T04:58:14.217Z,3.30
2019-02-03T05:00:42.181Z,3.20
2019-02-03T05:03:09.941Z,3.30
2019-02-03T05:05:38.081Z,3.20
2019-02-03T05:08:06.036Z,3.10
2019-02-03T05:10:33.938Z,3.10
2019-02-03T05:13:01.722Z,3.10
2019-02-03T05:15:29.693Z,3.10
2019-02-03T05:17:57.437Z,3.00
2019-02-03T05:20:26.612Z,3.00
2019-02-03T05:22:54.507Z,3.00
2019-02-03T05:25:22.639Z,3.00
2019-02-03T05:27:50.493Z,2.80
2019-02-03T05:30:23.688Z,2.80
2019-02-03T05:32:53.136Z,2.80
2019-02-03T05:35:21.445Z,2.90
2019-02-03T05:37:50.825Z,2.90
2019-02-03T05:40:18.688Z,2.80
2019-02-03T05:42:46.835Z,2.80
2019-02-03T05:45:16.254Z,2.70
2019-02-03T05:47:45.676Z,2.60
2019-02-03T05:50:15.282Z,2.70
2019-02-03T05:52:44.752Z,2.70
2019-02-03T05:55:13.154Z,2.60
2019-02-03T05:57:41.898Z,2.60
2019-02-03T06:00:12.977Z,2.50
2019-02-03T06:02:42.703Z,2.50
2019-02-03T06:05:10.481Z,2.50
2019-02-03T06:07:38.341Z,2.40
2019-02-03T06:10:09.368Z,2.40
2019-02-03T06:12:38.718Z,2.40
2019-02-03T06:15:25.863Z,2.40
2019-02-03T06:17:53.703Z,2.40
2019-02-03T06:20:21.475Z,2.40
2019-02-03T06:22:49.110Z,2.40
2019-02-03T06:25:16.946Z,2.40
2019-02-03T06:27:44.734Z,2.30
2019-02-03T06:30:56.728Z,2.30
2019-02-03T06:33:26.082Z,2.30
2019-02-03T06:35:53.817Z,2.30
2019-02-03T06:38:21.623Z,2.20
2019-02-03T06:40:49.318Z,2.10
2019-02-03T06:43:17.178Z,2.10
2019-02-03T06:46:04.474Z,2.10
2019-02-03T06:48:42.618Z,2.10
2019-02-03T06:51:10.502Z,2.00
2019-02-03T06:53:40.163Z,2.00
2019-02-03T06:56:07.842Z,2.00
2019-02-03T06:58:36.006Z,2.00
2019-02-03T07:01:04.095Z,1.90
2019-02-03T07:03:32.070Z,1.90
2019-02-03T07:05:59.848Z,1.90
2019-02-03T07:08:27.909Z,1.90
2019-02-03T07:10:55.713Z,1.90
2019-02-03T07:13:23.445Z,1.90
2019-02-03T07:15:51.283Z,1.90
2019-02-03T07:18:19.093Z,1.90
2019-02-03T07:20:46.845Z,1.90
2019-02-03T07:23:14.534Z,1.90
2019-02-03T07:25:42.318Z,2.00
2019-02-03T07:28:10.101Z,1.90
2019-02-03T07:30:38.414Z,1.90
2019-02-03T07:33:06.126Z,1.80
2019-02-03T07:35:33.951Z,1.80
2019-02-03T07:38:01.778Z,1.80
2019-02-03T07:40:29.867Z,1.90
2019-02-03T07:42:58.166Z,2.00
2019-02-03T07:45:26.213Z,2.00
2019-02-03T07:47:53.920Z,2.00
2019-02-03T07:50:21.773Z,2.00
2019-02-03T07:52:49.454Z,1.90
2019-02-03T07:55:17.207Z,1.80
2019-02-03T07:57:44.977Z,1.80
2019-02-03T08:00:12.892Z,1.70
2019-02-03T08:02:42.288Z,1.70
2019-02-03T08:05:10.407Z,1.70
2019-02-03T08:07:38.404Z,1.70
2019-02-03T08:10:06.283Z,1.70
2019-02-03T08:12:35.657Z,1.80
2019-02-03T08:15:06.104Z,1.70
2019-02-03T08:17:37.369Z,1.70
2019-02-03T08:20:06.803Z,1.70
2019-02-03T08:22:36.299Z,1.70
2019-02-03T08:25:05.488Z,1.70
2019-02-03T08:27:34.768Z,1.60
2019-02-03T08:30:06.018Z,1.60
2019-02-03T08:32:35.372Z,1.60
2019-02-03T08:35:05.067Z,1.60
2019-02-03T08:37:32.962Z,1.60
2019-02-03T08:40:00.855Z,1.70
2019-02-03T08:42:30.257Z,1.70
2019-02-03T08:44:58.179Z,1.70
2019-02-03T08:47:26.940Z,1.70
2019-02-03T08:49:55.634Z,1.80
2019-02-03T08:52:23.328Z,1.80
2019-02-03T08:54:58.297Z,1.70
2019-02-03T08:57:20.640Z,1.80
2019-02-03T08:59:48.806Z,1.80
2019-02-03T09:02:16.606Z,1.80
2019-02-03T09:04:44.588Z,1.90
2019-02-03T09:07:12.322Z,1.80
2019-02-03T09:09:40.128Z,1.70
2019-02-03T09:12:07.805Z,1.60
2019-02-03T09:14:36.083Z,1.60
2019-02-03T09:17:03.874Z,1.60
2019-02-03T09:19:31.866Z,1.70
2019-02-03T09:21:59.757Z,1.80
2019-02-03T09:24:27.531Z,1.80
2019-02-03T09:26:55.447Z,1.80
2019-02-03T09:29:23.128Z,1.90
2019-02-03T09:31:51.027Z,1.90
2019-02-03T09:34:18.823Z,2.00
2019-02-03T09:36:46.562Z,2.10
2019-02-03T09:39:14.288Z,2.10
2019-02-03T09:41:42.042Z,2.10
2019-02-03T09:44:09.971Z,2.10
2019-02-03T09:46:38.160Z,2.10
2019-02-03T09:49:06.069Z,2.10
2019-02-03T09:51:35.108Z,2.10
2019-02-03T09:54:03.320Z,2.10
2019-02-03T09:56:31.276Z,2.10
2019-02-03T09:58:59.068Z,2.10
2019-02-03T10:01:27.013Z,2.20
2019-02-03T10:03:54.815Z,2.10
2019-02-03T10:06:22.578Z,2.00
2019-02-03T10:08:50.391Z,2.00
2019-02-03T10:11:18.161Z,1.90
2019-02-03T10:13:45.963Z,1.90
2019-02-03T10:16:13.936Z,1.90
2019-02-03T10:18:41.941Z,1.90
2019-02-03T10:21:09.753Z,1.90
2019-02-03T10:23:37.757Z,2.00
2019-02-03T10:26:05.666Z,2.00
2019-02-03T10:28:33.572Z,1.90
2019-02-03T10:31:01.305Z,1.90
2019-02-03T10:33:29.609Z,1.80
2019-02-03T10:35:57.552Z,1.90
2019-02-03T10:38:25.434Z,1.90
2019-02-03T10:40:53.421Z,1.90
2019-02-03T10:43:21.418Z,1.90
2019-02-03T10:45:49.245Z,1.90
2019-02-03T10:48:17.166Z,1.90
2019-02-03T10:50:45.000Z,1.90
2019-02-03T10:53:12.795Z,1.80
2019-02-03T10:55:40.599Z,1.80
2019-02-03T10:58:08.654Z,1.90
2019-02-03T11:00:37.519Z,1.80
2019-02-03T11:03:06.910Z,1.90
2019-02-03T11:05:40.686Z,2.00
2019-02-03T11:08:11.730Z,2.00
2019-02-03T11:10:39.829Z,2.00
2019-02-03T11:13:07.736Z,2.00
2019-02-03T11:15:35.708Z,2.00
2019-02-03T11:18:04.251Z,2.00
2019-02-03T11:20:32.882Z,2.00
2019-02-03T11:23:02.883Z,2.00
2019-02-03T11:25:31.767Z,2.00
2019-02-03T11:27:59.908Z,2.00
2019-02-03T11:30:32.180Z,2.10
2019-02-03T11:33:06.551Z,2.10
2019-02-03T11:35:33.891Z,2.10
2019-02-03T11:38:01.909Z,2.00
2019-02-03T11:40:31.718Z,2.00
2019-02-03T11:43:01.096Z,2.00
2019-02-03T11:45:32.352Z,1.90
2019-02-03T11:48:02.106Z,1.90
2019-02-03T11:50:34.245Z,1.90
2019-02-03T11:53:05.989Z,1.90
2019-02-03T11:55:35.382Z,1.90
2019-02-03T11:58:07.137Z,1.90
2019-02-03T12:00:36.166Z,2.00
2019-02-03T12:03:05.213Z,2.00
2019-02-03T12:05:33.390Z,1.90
2019-02-03T12:08:01.254Z,1.90
2019-02-03T12:10:30.277Z,1.90
2019-02-03T12:12:58.877Z,1.90
2019-02-03T12:15:26.854Z,1.90
2019-02-03T12:17:54.949Z,2.00
2019-02-03T12:20:22.899Z,2.00
2019-02-03T12:22:50.889Z,2.00
2019-02-03T12:25:23.245Z,2.10
2019-02-03T12:27:53.129Z,2.20
2019-02-03T12:30:26.751Z,2.20
2019-02-03T12:32:56.191Z,2.10
2019-02-03T12:35:24.181Z,2.00
2019-02-03T12:37:52.348Z,2.00
2019-02-03T12:40:28.560Z,2.00
2019-02-03T12:42:58.480Z,2.10
2019-02-03T12:45:26.488Z,2.10
2019-02-03T12:47:54.753Z,2.10
2019-02-03T12:50:22.631Z,2.10
2019-02-03T12:52:50.695Z,2.20
2019-02-03T12:55:20.682Z,2.20
2019-02-03T12:57:50.148Z,2.20
2019-02-03T13:00:20.710Z,2.30
2019-02-03T13:02:50.011Z,2.30
2019-02-03T13:05:19.304Z,2.30
2019-02-03T13:07:48.749Z,2.30
2019-02-03T13:10:19.055Z,2.40
2019-02-03T13:12:48.392Z,2.40
2019-02-03T13:15:19.227Z,2.50
2019-02-03T13:17:48.573Z,2.50
2019-02-03T13:20:21.837Z,2.50
2019-02-03T13:22:52.809Z,2.50
2019-02-03T13:25:21.797Z,2.40
2019-02-03T13:27:49.881Z,2.30
2019-02-03T13:30:31.781Z,2.40
2019-02-03T13:33:01.204Z,2.50
2019-02-03T13:35:29.124Z,2.40
2019-02-03T13:37:56.993Z,2.50
2019-02-03T13:40:24.977Z,2.40
2019-02-03T13:42:52.841Z,2.40
2019-02-03T13:45:21.219Z,2.50
2019-02-03T13:47:50.878Z,2.50
2019-02-03T13:50:22.195Z,2.40
2019-02-03T13:52:52.024Z,2.40
2019-02-03T13:55:20.833Z,2.40
2019-02-03T13:57:49.271Z,2.40
2019-02-03T14:00:25.731Z,2.30
2019-02-03T14:02:55.185Z,2.40
2019-02-03T14:05:23.165Z,2.30
2019-02-03T14:07:51.159Z,2.40
2019-02-03T14:10:29.877Z,2.40
2019-02-03T14:12:59.811Z,2.40
2019-02-03T14:15:28.031Z,2.30
2019-02-03T14:17:56.419Z,2.30
2019-02-03T14:20:26.664Z,2.40
2019-02-03T14:22:56.721Z,2.40
2019-02-03T14:25:25.470Z,2.50
2019-02-03T14:27:53.344Z,2.40
2019-02-03T14:30:26.781Z,2.50
2019-02-03T14:32:58.413Z,2.40
2019-02-03T14:35:25.962Z,2.40
2019-02-03T14:37:53.886Z,2.40
2019-02-03T14:40:22.880Z,2.50
2019-02-03T14:43:01.147Z,2.40
2019-02-03T14:45:21.382Z,2.40
2019-02-03T14:47:50.762Z,2.50
2019-02-03T14:50:19.817Z,2.50
2019-02-03T14:52:49.920Z,2.60
2019-02-03T14:55:21.169Z,2.50
2019-02-03T14:57:50.547Z,2.50
2019-02-03T15:00:24.604Z,2.60
2019-02-03T15:02:53.981Z,2.50
2019-02-03T15:05:22.584Z,2.50
2019-02-03T15:07:50.662Z,2.40
2019-02-03T15:10:18.453Z,2.40
2019-02-03T15:12:46.178Z,2.40
2019-02-03T15:15:18.176Z,2.40
2019-02-03T15:17:47.670Z,2.40
2019-02-03T15:20:17.871Z,2.40
2019-02-03T15:22:47.334Z,2.30
2019-02-03T15:25:15.360Z,2.30
2019-02-03T15:27:43.301Z,2.40
2019-02-03T15:30:19.722Z,2.40
2019-02-03T15:32:48.470Z,2.40
2019-02-03T15:35:16.258Z,2.40
2019-02-03T15:37:44.186Z,2.40
2019-02-03T15:40:13.221Z,2.40
2019-02-03T15:42:42.622Z,2.30
2019-02-03T15:45:12.530Z,2.30
2019-02-03T15:47:41.937Z,2.40
2019-02-03T15:50:18.031Z,2.40
2019-02-03T15:52:47.514Z,2.30
2019-02-03T15:55:20.852Z,2.30
2019-02-03T15:57:50.694Z,2.30
2019-02-03T16:00:21.184Z,2.30
2019-02-03T16:02:50.537Z,2.30
2019-02-03T16:05:18.438Z,2.30
2019-02-03T16:07:46.358Z,2.30
2019-02-03T16:10:16.570Z,2.30
2019-02-03T16:12:46.486Z,2.40
2019-02-03T16:15:14.606Z,2.40
2019-02-03T16:17:42.706Z,2.40
2019-02-03T16:20:13.380Z,2.40
2019-02-03T16:22:42.811Z,2.40
2019-02-03T16:25:10.778Z,2.40
2019-02-03T16:27:38.966Z,2.50
2019-02-03T16:30:09.456Z,2.30
2019-02-03T16:32:38.953Z,2.30
2019-02-03T16:35:07.719Z,2.20
2019-02-03T16:37:37.587Z,2.30
2019-02-03T16:40:07.587Z,2.30
2019-02-03T16:42:37.007Z,2.30
2019-02-03T16:45:05.921Z,2.30
2019-02-03T16:47:35.500Z,2.30
2019-02-03T16:50:04.806Z,2.30
2019-02-03T16:52:34.242Z,2.30
2019-02-03T16:55:03.203Z,2.30
2019-02-03T16:57:32.615Z,2.40
2019-02-03T17:00:00.471Z,2.40
2019-02-03T17:02:28.429Z,2.30
2019-02-03T17:04:56.248Z,2.40
2019-02-03T17:07:24.206Z,2.40
2019-02-03T17:09:52.231Z,2.30
2019-02-03T17:12:20.245Z,2.40
2019-02-03T17:14:48.154Z,2.30
2019-02-03T17:17:16.010Z,2.40
2019-02-03T17:19:43.978Z,2.30
2019-02-03T17:22:11.919Z,2.30
2019-02-03T17:24:40.063Z,2.30
2019-02-03T17:27:07.986Z,2.30
2019-02-03T17:29:35.805Z,2.30
2019-02-03T17:32:03.741Z,2.20
2019-02-03T17:34:31.640Z,2.10
2019-02-03T17:36:59.496Z,2.10
2019-02-03T17:39:27.492Z,2.10
2019-02-03T17:41:55.645Z,2.20
2019-02-03T17:44:23.546Z,2.20
2019-02-03T17:46:51.383Z,2.20
2019-02-03T17:49:19.374Z,2.20
2019-02-03T17:51:47.206Z,2.20
2019-02-03T17:54:15.125Z,2.20
2019-02-03T17:56:47.120Z,2.20
2019-02-03T17:59:21.506Z,2.20
2019-02-03T18:01:49.346Z,2.30
2019-02-03T18:04:17.405Z,2.20
2019-02-03T18:06:45.149Z,2.20
2019-02-03T18:09:13.165Z,2.10
2019-02-03T18:11:41.473Z,2.20
2019-02-03T18:14:09.431Z,2.20
2019-02-03T18:16:37.554Z,2.10
2019-02-03T18:19:05.318Z,2.10
2019-02-03T18:21:33.371Z,2.10
2019-02-03T18:24:01.239Z,2.00
2019-02-03T18:26:29.069Z,2.00
2019-02-03T18:28:57.073Z,2.10
2019-02-03T18:31:25.103Z,2.10
2019-02-03T18:33:53.043Z,2.10
2019-02-03T18:36:21.030Z,2.10
2019-02-03T18:38:49.005Z,2.10
2019-02-03T18:41:16.830Z,2.20
2019-02-03T18:43:44.925Z,2.20
2019-02-03T18:46:13.009Z,2.30
2019-02-03T18:48:40.973Z,2.30
2019-02-03T18:51:09.023Z,2.20
2019-02-03T18:53:36.860Z,2.20
2019-02-03T18:56:04.585Z,2.10
2019-02-03T18:58:32.902Z,2.00
2019-02-03T19:01:00.801Z,2.10
2019-02-03T19:03:28.682Z,2.20
2019-02-03T19:05:56.493Z,2.20
2019-02-03T19:08:24.331Z,2.30
2019-02-03T19:10:52.205Z,2.30
2019-02-03T19:13:20.243Z,2.40
2019-02-03T19:15:48.202Z,2.40
2019-02-03T19:18:16.068Z,2.40
2019-02-03T19:20:43.877Z,2.40
2019-02-03T19:23:11.972Z,2.40
2019-02-03T19:25:40.318Z,2.40
2019-02-03T19:28:08.924Z,2.30
2019-02-03T19:30:36.809Z,2.30
2019-02-03T19:33:05.593Z,2.30
2019-02-03T19:35:33.573Z,2.30
2019-02-03T19:38:02.120Z,2.20
2019-02-03T19:40:31.270Z,2.20
2019-02-03T19:42:59.364Z,2.20
2019-02-03T19:45:28.294Z,2.20
2019-02-03T19:47:57.169Z,2.10
2019-02-03T19:50:27.672Z,2.20
2019-02-03T19:52:57.271Z,2.20
2019-02-03T19:55:25.434Z,2.20
2019-02-03T19:57:53.275Z,2.10
2019-02-03T20:00:30.496Z,2.10
2019-02-03T20:02:59.931Z,2.10
2019-02-03T20:05:29.157Z,2.20
2019-02-03T20:07:57.016Z,2.20
2019-02-03T20:12:53.874Z,2.30
2019-02-03T20:15:21.983Z,2.30
2019-02-03T20:17:50.277Z,2.20
2019-02-03T20:20:20.474Z,2.40
2019-02-03T20:22:49.903Z,2.40
2019-02-03T20:25:18.776Z,2.50
2019-02-03T20:27:47.143Z,2.50
2019-02-03T20:30:19.953Z,2.60
2019-02-03T20:32:49.269Z,2.60
2019-02-03T20:35:18.377Z,2.60
2019-02-03T20:37:47.938Z,2.60
2019-02-03T20:40:23.853Z,2.50
2019-02-03T20:42:53.184Z,2.50
2019-02-03T20:45:21.623Z,2.70
2019-02-03T20:47:49.726Z,2.70
2019-02-03T20:50:19.098Z,2.70
2019-02-03T20:52:48.401Z,2.70
2019-02-03T20:55:17.128Z,2.70
2019-02-03T20:57:46.145Z,2.70
2019-02-03T21:00:17.298Z,2.60
2019-02-03T21:02:46.689Z,2.50
2019-02-03T21:05:14.850Z,2.40
2019-02-03T21:07:42.845Z,2.50
2019-02-03T21:10:12.887Z,2.40
2019-02-03T21:12:42.276Z,2.30
2019-02-03T21:15:12.534Z,2.40
2019-02-03T21:17:42.062Z,2.40
2019-02-03T21:20:15.921Z,2.30
2019-02-03T21:22:46.345Z,2.30
2019-02-03T21:25:14.903Z,2.30
2019-02-03T21:27:43.598Z,2.30
2019-02-03T21:30:14.987Z,2.20
2019-02-03T21:32:44.377Z,2.20
2019-02-03T21:35:12.184Z,2.20
2019-02-03T21:37:40.054Z,2.20
2019-02-03T21:40:11.233Z,2.20
2019-02-03T21:42:40.583Z,2.30
2019-02-03T21:45:08.958Z,2.30
2019-02-03T21:47:37.578Z,2.30
2019-02-03T21:50:08.825Z,2.20
2019-02-03T21:52:38.173Z,2.20
2019-02-03T21:55:07.557Z,2.30
2019-02-03T21:57:36.890Z,2.30
2019-02-03T22:00:08.173Z,2.50
2019-02-03T22:02:37.474Z,2.40
2019-02-03T22:05:05.569Z,2.40
2019-02-03T22:07:36.295Z,2.30
2019-02-03T22:10:04.700Z,2.20
2019-02-03T22:12:34.102Z,2.20
2019-02-03T22:15:01.819Z,2.10
2019-02-03T22:17:31.130Z,2.10
2019-02-03T22:19:58.946Z,2.20
2019-02-03T22:22:26.655Z,2.20
2019-02-03T22:24:54.411Z,2.30
2019-02-03T22:27:22.177Z,2.30
2019-02-03T22:29:49.963Z,2.30
2019-02-03T22:32:17.893Z,2.40
2019-02-03T22:34:45.695Z,2.30
2019-02-03T22:37:13.459Z,2.30
2019-02-03T22:39:41.408Z,2.30
2019-02-03T22:42:09.265Z,2.30
2019-02-03T22:44:37.045Z,2.30
2019-02-03T22:47:04.960Z,2.40
2019-02-03T22:49:33.197Z,2.40
2019-02-03T22:52:00.942Z,2.50
2019-02-03T22:54:28.675Z,2.50
2019-02-03T22:56:56.530Z,2.50
2019-02-03T22:59:24.289Z,2.40
2019-02-03T23:01:53.060Z,2.40
2019-02-03T23:04:26.958Z,2.40
2019-02-03T23:06:54.733Z,2.40
2019-02-03T23:09:32.103Z,2.30
2019-02-03T23:12:01.510Z,2.30
2019-02-03T23:14:30.801Z,2.40
2019-02-03T23:16:59.074Z,2.40
2019-02-03T23:19:26.963Z,2.40
2019-02-03T23:21:54.717Z,2.50
2019-02-03T23:24:22.413Z,2.50
2019-02-03T23:26:50.240Z,2.60
2019-02-03T23:29:18.030Z,2.40
2019-02-03T23:31:45.838Z,2.40
2019-02-03T23:34:13.721Z,2.50
2019-02-03T23:36:41.503Z,2.60
2019-02-03T23:39:11.733Z,2.50
2019-02-03T23:41:39.445Z,2.50
2019-02-03T23:44:07.443Z,2.40
2019-02-03T23:46:35.196Z,2.40
2019-02-03T23:49:03.464Z,2.40
2019-02-03T23:51:31.256Z,2.40
2019-02-03T23:53:59.181Z,2.30
2019-02-03T23:56:26.986Z,2.30
2019-02-03T23:58:54.802Z,2.20
